createdAt,value
2023-04-13T00:00:58.205Z,12.61
2023-04-13T00:03:27.444Z,12.59
2023-04-13T00:05:56.286Z,12.58
2023-04-13T00:08:26.143Z,12.53
2023-04-13T00:10:55.008Z,12.50
2023-04-13T00:13:24.800Z,12.45
2023-04-13T00:15:53.947Z,12.40
2023-04-13T00:18:22.284Z,12.35
2023-04-13T00:20:50.677Z,12.34
2023-04-13T00:23:22.396Z,12.32
2023-04-13T00:25:52.335Z,12.32
2023-04-13T00:28:20.651Z,12.32
2023-04-13T00:30:51.863Z,12.31
2023-04-13T00:33:20.456Z,12.31
2023-04-13T00:35:48.824Z,12.31
2023-04-13T00:38:18.199Z,12.31
2023-04-13T00:40:46.548Z,12.30
2023-04-13T00:43:17.481Z,12.29
2023-04-13T00:45:45.872Z,12.25
2023-04-13T00:48:14.643Z,12.21
2023-04-13T00:50:43.771Z,12.20
2023-04-13T00:53:13.633Z,12.17
2023-04-13T00:55:43.195Z,12.17
2023-04-13T00:58:20.682Z,12.14
2023-04-13T01:00:48.965Z,12.14
2023-04-13T01:03:18.253Z,12.14
2023-04-13T01:05:56.235Z,12.13
2023-04-13T01:08:35.302Z,12.12
2023-04-13T01:11:08.675Z,12.12
2023-04-13T01:13:45.085Z,12.10
2023-04-13T01:16:20.432Z,12.11
2023-04-13T01:18:53.442Z,12.11
2023-04-13T01:21:26.107Z,11.97
2023-04-13T01:24:16.972Z,11.86
2023-04-13T01:26:57.297Z,11.77
2023-04-13T01:29:28.601Z,11.72
2023-04-13T01:31:57.828Z,11.70
2023-04-13T01:34:26.703Z,11.63
2023-04-13T01:36:55.742Z,11.56
2023-04-13T01:39:32.050Z,11.53
2023-04-13T01:42:00.622Z,11.47
2023-04-13T01:44:33.665Z,11.42
2023-04-13T01:47:15.957Z,11.38
2023-04-13T01:49:49.965Z,11.34
2023-04-13T01:52:19.087Z,11.30
2023-04-13T01:54:50.903Z,11.27
2023-04-13T01:57:19.583Z,11.26
2023-04-13T01:59:49.262Z,11.24
2023-04-13T02:02:21.206Z,11.26
2023-04-13T02:04:50.360Z,11.22
2023-04-13T02:07:18.915Z,11.20
2023-04-13T02:09:47.266Z,11.20
2023-04-13T02:12:15.641Z,11.16
2023-04-13T02:14:43.938Z,11.15
2023-04-13T02:17:13.731Z,11.13
2023-04-13T02:19:42.031Z,11.13
2023-04-13T02:22:14.371Z,11.11
2023-04-13T02:24:45.468Z,11.09
2023-04-13T02:27:13.766Z,11.07
2023-04-13T02:29:42.879Z,11.04
2023-04-13T02:32:16.591Z,11.02
2023-04-13T02:34:45.176Z,11.00
2023-04-13T02:37:13.682Z,10.97
2023-04-13T02:39:41.987Z,10.91
2023-04-13T02:42:11.783Z,10.90
2023-04-13T02:44:40.747Z,10.89
2023-04-13T02:47:09.487Z,10.88
2023-04-13T02:49:39.143Z,10.84
2023-04-13T02:52:07.407Z,10.84
2023-04-13T02:54:36.235Z,10.83
2023-04-13T02:57:05.144Z,10.84
2023-04-13T02:59:33.981Z,10.84
2023-04-13T03:02:02.662Z,10.85
2023-04-13T03:04:31.202Z,10.83
2023-04-13T03:07:05.112Z,10.85
2023-04-13T03:09:33.466Z,10.84
2023-04-13T03:12:05.866Z,10.85
2023-04-13T03:14:34.195Z,10.85
2023-04-13T03:17:04.412Z,10.85
2023-04-13T03:19:36.671Z,10.84
2023-04-13T03:22:06.354Z,10.84
2023-04-13T03:24:35.260Z,10.83
2023-04-13T03:27:03.747Z,10.84
2023-04-13T03:29:32.000Z,10.83
2023-04-13T03:32:00.502Z,10.83
2023-04-13T03:34:28.830Z,10.83
2023-04-13T03:36:57.157Z,10.83
2023-04-13T03:39:27.247Z,10.83
2023-04-13T03:41:56.089Z,10.83
2023-04-13T03:44:24.376Z,10.83
2023-04-13T03:46:52.654Z,10.81
2023-04-13T03:49:21.020Z,10.80
2023-04-13T03:51:49.512Z,10.79
2023-04-13T03:54:17.781Z,10.78
2023-04-13T03:56:47.473Z,10.77
2023-04-13T03:59:15.769Z,10.73
2023-04-13T04:01:44.112Z,10.76
2023-04-13T04:04:12.539Z,10.75
2023-04-13T04:06:40.903Z,10.75
2023-04-13T04:09:13.646Z,10.75
2023-04-13T04:11:41.962Z,10.75
2023-04-13T04:14:11.728Z,10.75
2023-04-13T04:16:40.047Z,10.75
2023-04-13T04:19:08.610Z,10.74
2023-04-13T04:21:36.990Z,10.74
2023-04-13T04:24:11.634Z,10.73
2023-04-13T04:26:40.386Z,10.73
2023-04-13T04:29:09.786Z,10.73
2023-04-13T04:31:43.936Z,10.72
2023-04-13T04:34:16.787Z,10.70
2023-04-13T04:36:50.305Z,10.69
2023-04-13T04:39:22.040Z,10.66
2023-04-13T04:41:54.220Z,10.68
2023-04-13T04:44:25.291Z,10.68
2023-04-13T04:46:55.304Z,10.67
2023-04-13T04:49:23.937Z,10.65
2023-04-13T04:51:53.000Z,10.66
2023-04-13T04:54:24.315Z,10.64
2023-04-13T04:56:53.266Z,10.64
2023-04-13T04:59:21.619Z,10.64
2023-04-13T05:01:50.528Z,10.63
2023-04-13T05:04:20.223Z,10.62
2023-04-13T05:06:49.280Z,10.62
2023-04-13T05:09:19.028Z,10.60
2023-04-13T05:11:47.405Z,10.63
2023-04-13T05:14:15.814Z,10.62
2023-04-13T05:16:44.637Z,10.63
2023-04-13T05:19:13.578Z,10.64
2023-04-13T05:21:43.250Z,10.64
2023-04-13T05:24:11.946Z,10.66
2023-04-13T05:26:40.236Z,10.66
2023-04-13T05:29:09.382Z,10.67
2023-04-13T05:31:38.012Z,10.66
2023-04-13T05:34:06.438Z,10.67
2023-04-13T05:36:34.711Z,10.69
2023-04-13T05:39:05.487Z,10.68
2023-04-13T05:41:33.912Z,10.66
2023-04-13T05:44:02.244Z,10.68
2023-04-13T05:46:30.553Z,10.69
2023-04-13T05:48:59.843Z,10.70
2023-04-13T05:51:30.894Z,10.71
2023-04-13T05:53:59.324Z,10.73
2023-04-13T05:56:29.839Z,10.74
2023-04-13T05:58:58.620Z,10.76
2023-04-13T06:01:29.664Z,10.76
2023-04-13T06:03:58.205Z,10.78
2023-04-13T06:06:26.663Z,10.80
2023-04-13T06:08:55.201Z,10.82
2023-04-13T06:11:29.927Z,10.83
2023-04-13T06:14:00.240Z,10.84
2023-04-13T06:16:28.775Z,10.88
2023-04-13T06:18:57.152Z,10.87
2023-04-13T06:21:27.043Z,10.90
2023-04-13T06:23:55.574Z,10.91
2023-04-13T06:26:25.089Z,10.95
2023-04-13T06:28:53.417Z,10.98
2023-04-13T06:31:23.401Z,11.00
2023-04-13T06:33:51.869Z,11.02
2023-04-13T06:36:20.264Z,11.03
2023-04-13T06:38:48.581Z,11.05
2023-04-13T06:41:16.969Z,11.09
2023-04-13T06:43:49.927Z,11.10
2023-04-13T06:46:19.690Z,11.12
2023-04-13T06:48:49.969Z,11.16
2023-04-13T06:51:18.248Z,11.18
2023-04-13T06:53:46.818Z,11.20
2023-04-13T06:56:15.114Z,11.23
2023-04-13T06:58:43.489Z,11.25
2023-04-13T07:01:12.455Z,11.27
2023-04-13T07:03:41.110Z,11.29
2023-04-13T07:06:11.649Z,11.31
2023-04-13T07:08:39.903Z,11.33
2023-04-13T07:11:10.168Z,11.36
2023-04-13T07:13:39.035Z,11.38
2023-04-13T07:16:08.931Z,11.43
2023-04-13T07:18:37.283Z,11.45
2023-04-13T07:21:07.166Z,11.49
2023-04-13T07:23:36.849Z,11.53
2023-04-13T07:26:06.296Z,11.56
2023-04-13T07:28:34.671Z,11.61
2023-04-13T07:31:03.598Z,11.65
2023-04-13T07:33:32.380Z,11.68
2023-04-13T07:36:00.705Z,11.74
2023-04-13T07:38:29.015Z,11.83
2023-04-13T07:40:58.651Z,11.92
2023-04-13T07:43:27.255Z,11.94
2023-04-13T07:45:55.820Z,12.04
2023-04-13T07:48:24.191Z,12.14
2023-04-13T07:50:52.788Z,12.19
2023-04-13T07:53:21.109Z,12.29
2023-04-13T07:55:49.464Z,12.32
2023-04-13T07:58:19.186Z,12.43
2023-04-13T08:00:47.588Z,12.52
2023-04-13T08:03:16.720Z,12.64
2023-04-13T08:05:47.084Z,12.76
2023-04-13T08:08:15.641Z,12.90
2023-04-13T08:10:43.955Z,12.96
2023-04-13T08:13:12.677Z,13.06
2023-04-13T08:15:42.460Z,13.15
2023-04-13T08:18:10.762Z,13.20
2023-04-13T08:20:39.242Z,13.30
2023-04-13T08:23:07.560Z,13.36
2023-04-13T08:25:43.377Z,13.37
2023-04-13T08:28:11.803Z,13.41
2023-04-13T08:30:41.722Z,13.44
2023-04-13T08:33:10.319Z,13.48
2023-04-13T08:35:39.538Z,13.52
2023-04-13T08:38:09.066Z,13.55
2023-04-13T08:40:40.115Z,13.60
2023-04-13T08:43:08.879Z,13.64
2023-04-13T08:45:37.822Z,13.72
2023-04-13T08:48:11.666Z,13.84
2023-04-13T08:50:40.040Z,14.01
2023-04-13T08:53:11.690Z,14.18
2023-04-13T08:55:46.968Z,14.31
2023-04-13T08:58:19.722Z,14.41
2023-04-13T09:00:50.176Z,14.50
2023-04-13T09:03:26.241Z,14.65
2023-04-13T09:06:00.983Z,14.76
2023-04-13T09:08:34.634Z,14.88
2023-04-13T09:11:03.612Z,14.98
2023-04-13T09:13:32.114Z,15.02
2023-04-13T09:16:02.752Z,15.09
2023-04-13T09:18:33.684Z,15.13
2023-04-13T09:21:02.233Z,15.11
2023-04-13T09:23:30.532Z,15.07
2023-04-13T09:26:09.545Z,15.09
2023-04-13T09:28:48.100Z,15.06
2023-04-13T09:31:17.219Z,15.04
2023-04-13T09:33:48.753Z,15.02
2023-04-13T09:36:19.405Z,15.00
2023-04-13T09:38:53.302Z,14.99
2023-04-13T09:41:32.731Z,14.96
2023-04-13T09:44:01.804Z,14.96
2023-04-13T09:46:30.298Z,14.96
2023-04-13T09:49:05.115Z,14.92
2023-04-13T09:51:41.984Z,14.90
2023-04-13T09:54:12.126Z,14.87
2023-04-13T09:56:48.248Z,14.87
2023-04-13T09:59:17.498Z,14.88
2023-04-13T10:01:46.108Z,14.85
2023-04-13T10:04:17.118Z,14.93
2023-04-13T10:06:46.904Z,14.98
2023-04-13T10:09:15.807Z,15.06
2023-04-13T10:11:47.725Z,15.08
2023-04-13T10:14:19.480Z,15.16
2023-04-13T10:17:16.912Z,15.27
2023-04-13T10:19:49.940Z,15.36
2023-04-13T10:22:20.224Z,15.45
2023-04-13T10:24:48.704Z,15.60
2023-04-13T10:27:22.423Z,15.75
2023-04-13T10:29:51.126Z,15.84
2023-04-13T10:32:24.124Z,15.96
2023-04-13T10:34:54.724Z,16.10
2023-04-13T10:37:29.710Z,16.17
2023-04-13T10:40:07.807Z,16.28
2023-04-13T10:45:21.414Z,16.39
2023-04-13T10:47:49.895Z,16.48
2023-04-13T10:50:22.301Z,16.56
2023-04-13T10:53:03.838Z,16.64
2023-04-13T10:55:33.040Z,16.73
2023-04-13T10:58:03.453Z,16.79
2023-04-13T11:00:45.439Z,16.95
2023-04-13T11:03:16.730Z,16.98
2023-04-13T11:05:47.646Z,16.95
2023-04-13T11:08:20.689Z,16.96
2023-04-13T11:10:53.645Z,17.01
2023-04-13T11:13:25.627Z,17.12
2023-04-13T11:16:02.478Z,17.19
2023-04-13T11:18:30.902Z,17.30
2023-04-13T11:21:04.677Z,17.36
2023-04-13T11:23:36.154Z,17.40
2023-04-13T11:26:05.303Z,17.45
2023-04-13T11:28:43.532Z,17.48
2023-04-13T11:31:12.797Z,17.44
2023-04-13T11:33:44.409Z,17.50
2023-04-13T11:36:14.353Z,17.54
2023-04-13T11:38:43.655Z,17.52
2023-04-13T11:41:16.813Z,17.51
2023-04-13T11:43:48.451Z,17.54
2023-04-13T11:46:25.382Z,17.51
2023-04-13T11:48:56.379Z,17.47
2023-04-13T11:51:26.764Z,17.47
2023-04-13T11:53:55.465Z,17.45
2023-04-13T11:56:25.896Z,17.47
2023-04-13T11:58:54.652Z,17.48
2023-04-13T12:01:27.185Z,17.46
2023-04-13T12:04:14.856Z,17.37
2023-04-13T12:06:48.698Z,17.38
2023-04-13T12:09:20.349Z,17.36
2023-04-13T12:12:07.901Z,17.35
2023-04-13T12:19:51.825Z,17.34
2023-04-13T12:22:22.817Z,17.30
2023-04-13T12:24:53.506Z,17.30
2023-04-13T12:27:21.976Z,17.27
2023-04-13T12:29:50.298Z,17.29
2023-04-13T12:32:21.123Z,17.18
2023-04-13T12:34:49.472Z,17.23
2023-04-13T12:37:17.805Z,17.10
2023-04-13T12:39:47.730Z,17.04
2023-04-13T12:42:16.149Z,17.00
2023-04-13T12:44:44.477Z,16.95
2023-04-13T12:47:12.912Z,16.92
2023-04-13T12:49:41.213Z,16.82
2023-04-13T12:52:09.583Z,16.80
2023-04-13T12:54:37.885Z,16.77
2023-04-13T12:57:10.437Z,16.72
2023-04-13T12:59:38.738Z,16.64
2023-04-13T13:02:07.985Z,16.60
2023-04-13T13:04:36.410Z,16.57
2023-04-13T13:07:04.801Z,16.55
2023-04-13T13:09:33.122Z,16.48
2023-04-13T13:12:02.670Z,16.43
2023-04-13T13:14:32.956Z,16.36
2023-04-13T13:17:02.803Z,16.29
2023-04-13T13:19:31.319Z,16.23
2023-04-13T13:22:00.905Z,16.18
2023-04-13T13:24:29.231Z,16.14
2023-04-13T13:29:33.173Z,16.03
2023-04-13T13:32:03.011Z,15.99
2023-04-13T13:34:31.754Z,15.93
2023-04-13T13:37:00.199Z,15.91
2023-04-13T13:39:28.507Z,15.87
2023-04-13T13:41:57.360Z,15.85
2023-04-13T13:44:25.929Z,15.80
2023-04-13T13:46:54.325Z,15.73
2023-04-13T13:49:24.937Z,15.68
2023-04-13T13:51:54.100Z,15.63
2023-04-13T13:54:22.886Z,15.60
2023-04-13T13:56:51.629Z,15.57
2023-04-13T13:59:20.067Z,15.54
2023-04-13T14:01:48.838Z,15.50
2023-04-13T14:04:17.248Z,15.48
2023-04-13T14:06:49.623Z,15.44
2023-04-13T14:09:18.926Z,15.37
2023-04-13T14:11:47.402Z,15.40
2023-04-13T14:14:21.725Z,15.32
2023-04-13T14:16:50.987Z,15.28
2023-04-13T14:19:20.833Z,15.24
2023-04-13T14:21:50.966Z,15.21
2023-04-13T14:24:19.436Z,15.17
2023-04-13T14:26:47.808Z,15.13
2023-04-13T14:29:16.307Z,15.08
2023-04-13T14:31:44.718Z,15.03
2023-04-13T14:34:13.241Z,14.99
2023-04-13T14:36:42.351Z,14.95
2023-04-13T14:39:12.132Z,14.94
2023-04-13T14:41:40.590Z,14.93
2023-04-13T14:44:08.942Z,14.92
2023-04-13T14:46:37.430Z,14.95
2023-04-13T14:49:05.904Z,14.93
2023-04-13T14:51:34.479Z,14.93
2023-04-13T14:54:02.934Z,14.87
2023-04-13T14:56:32.717Z,14.86
2023-04-13T14:59:01.378Z,14.86
2023-04-13T15:01:30.185Z,14.85
2023-04-13T15:03:58.788Z,14.85
2023-04-13T15:06:28.154Z,14.84
2023-04-13T15:08:56.717Z,14.85
2023-04-13T15:11:25.161Z,14.84
2023-04-13T15:13:55.176Z,14.84
2023-04-13T15:16:23.632Z,14.85
2023-04-13T15:18:52.123Z,14.87
2023-04-13T15:21:20.523Z,14.78
2023-04-13T15:23:48.910Z,14.80
2023-04-13T15:26:18.777Z,14.80
2023-04-13T15:28:47.306Z,14.77
2023-04-13T15:31:17.189Z,14.77
2023-04-13T15:33:45.598Z,14.74
2023-04-13T15:36:19.088Z,14.75
2023-04-13T15:38:47.509Z,14.77
2023-04-13T15:41:16.236Z,14.80
2023-04-13T15:43:44.824Z,14.81
2023-04-13T15:46:13.431Z,14.83
2023-04-13T15:48:43.185Z,14.82
2023-04-13T15:51:12.293Z,14.82
2023-04-13T15:53:40.938Z,14.83
2023-04-13T15:56:10.291Z,14.83
2023-04-13T15:58:38.827Z,14.83
2023-04-13T16:03:39.073Z,14.83
2023-04-13T16:06:10.655Z,14.80
2023-04-13T16:08:39.853Z,14.77
2023-04-13T16:11:08.203Z,14.77
2023-04-13T16:13:49.002Z,14.75
2023-04-13T16:16:18.535Z,14.75
2023-04-13T16:18:47.487Z,14.70
2023-04-13T16:21:19.949Z,14.69
2023-04-13T16:23:48.576Z,14.69
2023-04-13T16:26:16.919Z,14.66
2023-04-13T16:28:45.548Z,14.65
2023-04-13T16:31:14.017Z,14.65
2023-04-13T16:33:42.368Z,14.62
2023-04-13T16:36:11.633Z,14.62
2023-04-13T16:38:42.870Z,14.61
2023-04-13T16:41:11.825Z,14.60
2023-04-13T16:43:40.151Z,14.59
2023-04-13T16:46:08.501Z,14.57
2023-04-13T16:48:36.843Z,14.55
2023-04-13T16:51:05.762Z,14.51
2023-04-13T16:53:34.266Z,14.46
2023-04-13T16:56:04.079Z,14.43
2023-04-13T16:58:32.820Z,14.41
2023-04-13T17:01:01.271Z,14.40
2023-04-13T17:03:29.936Z,14.39
2023-04-13T17:05:58.527Z,14.34
2023-04-13T17:08:26.855Z,14.33
2023-04-13T17:10:55.207Z,14.29
2023-04-13T17:13:24.906Z,14.27
2023-04-13T17:15:53.220Z,14.26
2023-04-13T17:18:21.618Z,14.25
2023-04-13T17:20:57.549Z,14.25
2023-04-13T17:23:25.933Z,14.24
2023-04-13T17:25:56.277Z,14.24
2023-04-13T17:28:26.231Z,14.22
2023-04-13T17:30:54.535Z,14.22
2023-04-13T17:33:24.279Z,14.23
2023-04-13T17:35:54.827Z,14.20
2023-04-13T17:38:23.200Z,14.17
2023-04-13T17:40:52.176Z,14.14
2023-04-13T17:43:20.605Z,14.11
2023-04-13T17:45:50.349Z,14.10
2023-04-13T17:48:18.803Z,14.07
2023-04-13T17:50:47.085Z,14.06
2023-04-13T17:53:15.564Z,14.05
2023-04-13T17:55:46.766Z,14.04
2023-04-13T17:58:15.089Z,14.02
2023-04-13T18:00:43.479Z,14.00
2023-04-13T18:03:14.207Z,13.98
2023-04-13T18:05:45.483Z,13.95
2023-04-13T18:08:13.816Z,13.94
2023-04-13T18:10:44.806Z,13.91
2023-04-13T18:13:13.122Z,13.88
2023-04-13T18:15:41.568Z,13.84
2023-04-13T18:18:09.914Z,13.83
2023-04-13T18:20:39.597Z,13.81
2023-04-13T18:23:10.922Z,13.77
2023-04-13T18:25:39.789Z,13.74
2023-04-13T18:28:11.110Z,13.71
2023-04-13T18:30:39.453Z,13.69
2023-04-13T18:33:07.795Z,13.67
2023-04-13T18:35:36.373Z,13.64
2023-04-13T18:38:06.086Z,13.60
2023-04-13T18:40:34.396Z,13.58
2023-04-13T18:43:02.773Z,13.55
2023-04-13T18:45:31.136Z,13.52
2023-04-13T18:48:02.047Z,13.49
2023-04-13T18:50:30.539Z,13.47
2023-04-13T18:52:58.830Z,13.45
2023-04-13T18:55:29.177Z,13.44
2023-04-13T18:57:57.741Z,13.41
2023-04-13T19:00:26.404Z,13.38
2023-04-13T19:02:57.163Z,13.36
2023-04-13T19:05:26.438Z,13.33
2023-04-13T19:07:59.669Z,13.31
2023-04-13T19:10:29.496Z,13.29
2023-04-13T19:12:57.838Z,13.24
2023-04-13T19:15:26.671Z,13.23
2023-04-13T19:17:55.282Z,13.21
2023-04-13T19:20:25.221Z,13.18
2023-04-13T19:22:53.611Z,13.14
2023-04-13T19:25:24.709Z,13.10
2023-04-13T19:27:54.476Z,13.06
2023-04-13T19:30:22.815Z,13.00
2023-04-13T19:32:52.726Z,12.96
2023-04-13T19:35:22.415Z,12.91
2023-04-13T19:37:50.981Z,12.87
2023-04-13T19:40:19.529Z,12.79
2023-04-13T19:42:48.509Z,12.79
2023-04-13T19:45:18.792Z,12.72
2023-04-13T19:47:47.655Z,12.72
2023-04-13T19:50:16.659Z,12.69
2023-04-13T19:52:47.490Z,12.64
2023-04-13T19:55:16.062Z,12.63
2023-04-13T19:57:44.471Z,12.62
2023-04-13T20:00:22.441Z,12.58
2023-04-13T20:02:53.076Z,12.56
2023-04-13T20:05:22.547Z,12.55
2023-04-13T20:07:50.966Z,12.53
2023-04-13T20:10:19.411Z,12.52
2023-04-13T20:12:47.803Z,12.52
2023-04-13T20:15:16.482Z,12.52
2023-04-13T20:17:44.843Z,12.53
2023-04-13T20:20:15.369Z,12.52
2023-04-13T20:22:43.763Z,12.49
2023-04-13T20:25:12.130Z,12.50
2023-04-13T20:27:41.906Z,12.49
2023-04-13T20:30:11.842Z,12.50
2023-04-13T20:32:40.404Z,12.50
2023-04-13T20:35:10.445Z,12.49
2023-04-13T20:37:40.146Z,12.49
2023-04-13T20:40:11.405Z,12.48
2023-04-13T20:42:42.275Z,12.48
2023-04-13T20:45:14.158Z,12.46
2023-04-13T20:47:43.344Z,12.46
2023-04-13T20:50:13.340Z,12.44
2023-04-13T20:52:43.339Z,12.42
2023-04-13T20:55:12.735Z,12.42
2023-04-13T20:57:42.152Z,12.41
2023-04-13T21:00:15.575Z,12.40
2023-04-13T21:02:46.890Z,12.39
2023-04-13T21:05:15.490Z,12.37
2023-04-13T21:07:45.401Z,12.35
2023-04-13T21:10:17.650Z,12.34
2023-04-13T21:12:46.296Z,12.31
2023-04-13T21:15:15.126Z,12.30
2023-04-13T21:17:43.617Z,12.28
2023-04-13T21:20:13.760Z,12.25
2023-04-13T21:22:42.272Z,12.21
2023-04-13T21:25:12.308Z,12.22
2023-04-13T21:27:41.055Z,12.19
2023-04-13T21:30:10.928Z,12.20
2023-04-13T21:32:39.342Z,12.19
2023-04-13T21:35:09.296Z,12.17
2023-04-13T21:37:37.688Z,12.17
2023-04-13T21:40:07.352Z,12.14
2023-04-13T21:42:38.156Z,12.12
2023-04-13T21:45:07.844Z,12.09
2023-04-13T21:47:36.334Z,12.07
2023-04-13T21:50:15.395Z,12.06
2023-04-13T21:52:43.964Z,12.03
2023-04-13T21:55:18.095Z,12.01
2023-04-13T21:57:48.942Z,11.99
2023-04-13T22:00:18.435Z,11.96
2023-04-13T22:02:46.927Z,11.96
2023-04-13T22:05:16.853Z,11.94
2023-04-13T22:07:45.273Z,11.93
2023-04-13T22:10:19.409Z,11.91
2023-04-13T22:12:49.379Z,11.88
2023-04-13T22:15:17.840Z,11.83
2023-04-13T22:17:46.212Z,11.83
2023-04-13T22:20:19.613Z,11.83
2023-04-13T22:22:47.976Z,11.82
2023-04-13T22:25:16.460Z,11.81
2023-04-13T22:27:45.039Z,11.79
2023-04-13T22:30:17.082Z,11.75
2023-04-13T22:32:45.445Z,11.75
2023-04-13T22:35:14.488Z,11.75
2023-04-13T22:37:42.816Z,11.74
2023-04-13T22:40:12.251Z,11.73
2023-04-13T22:42:40.741Z,11.73
2023-04-13T22:45:10.349Z,11.71
2023-04-13T22:47:40.076Z,11.68
2023-04-13T22:50:12.002Z,11.68
2023-04-13T22:52:40.439Z,11.69
2023-04-13T22:55:11.887Z,11.67
2023-04-13T22:57:40.202Z,11.66
2023-04-13T23:00:12.643Z,11.67
2023-04-13T23:02:42.892Z,11.65
2023-04-13T23:05:14.457Z,11.66
2023-04-13T23:07:42.842Z,11.64
2023-04-13T23:10:11.557Z,11.63
2023-04-13T23:12:40.025Z,11.63
2023-04-13T23:15:09.558Z,11.61
2023-04-13T23:17:39.882Z,11.59
2023-04-13T23:20:18.261Z,11.57
2023-04-13T23:22:46.649Z,11.56
2023-04-13T23:25:14.984Z,11.56
2023-04-13T23:27:43.346Z,11.54
2023-04-13T23:30:16.187Z,11.54
2023-04-13T23:32:44.574Z,11.51
2023-04-13T23:35:14.315Z,11.48
2023-04-13T23:37:43.514Z,11.46
2023-04-13T23:40:14.857Z,11.47
2023-04-13T23:42:43.188Z,11.44
2023-04-13T23:45:12.141Z,11.44
2023-04-13T23:47:40.703Z,11.43
2023-04-13T23:50:09.837Z,11.43
2023-04-13T23:52:39.517Z,11.41
2023-04-13T23:55:09.081Z,11.41
2023-04-13T23:57:37.479Z,11.41
